Time;durP1;ratioP1;P1;durP2;ratioP2;P2;SDS_P1;SDS_P2;PMS_P1;PMS_P2;Temp;Humidity;BMP_temperature;BMP_pressure;BME280_temperature;BME280_humidity;BME280_pressure;Samples;Min_cycle;Max_cycle;Signal;HPM_P1;HPM_P2
2023/08/27 00:00:00;;;;;;;2.47;1.40;;;;;;;19.51;84.57;98942.63;333143;29;4822;-88
2023/08/27 00:00:12;;;;;;;3.95;1.50;;;;;;;19.52;84.14;98944.31;334331;29;4511;-88
2023/08/27 00:00:24;;;;;;;3.80;1.40;;;;;;;19.51;83.93;98942.63;330410;29;17593;-89
2023/08/27 00:00:36;;;;;;;1.90;1.40;;;;;;;19.52;83.90;98943.50;333567;29;4560;-87
2023/08/27 00:00:48;;;;;;;2.28;1.80;;;;;;;19.52;84.26;98943.50;331005;29;6221;-89
2023/08/27 00:01:00;;;;;;;2.80;1.80;;;;;;;19.51;84.19;98942.63;331911;29;4530;-89
2023/08/27 00:01:12;;;;;;;2.70;1.65;;;;;;;19.53;84.33;98940.72;331199;29;8125;-89
2023/08/27 00:01:24;;;;;;;2.38;1.55;;;;;;;19.53;83.72;98943.34;330371;29;17086;-88
2023/08/27 00:01:36;;;;;;;2.00;1.52;;;;;;;19.54;83.52;98939.75;330863;29;4552;-88
2023/08/27 00:01:48;;;;;;;2.38;1.63;;;;;;;19.55;83.38;98936.16;329233;29;18547;-89
2023/08/27 00:02:00;;;;;;;4.60;1.77;;;;;;;19.55;83.36;98940.59;332366;29;4482;-89
2023/08/27 00:02:13;;;;;;;4.65;1.70;;;;;;;19.58;83.11;98942.13;330542;29;10755;-88
2023/08/27 00:02:24;;;;;;;3.58;1.63;;;;;;;19.58;82.95;98931.59;333676;29;4516;-88
2023/08/27 00:02:36;;;;;;;2.53;1.65;;;;;;;19.57;82.99;98930.75;333553;29;4649;-88
2023/08/27 00:02:48;;;;;;;2.00;1.45;;;;;;;19.59;82.84;98941.19;330125;29;18048;-89
2023/08/27 00:03:01;;;;;;;2.00;1.50;;;;;;;19.60;82.56;98932.28;333640;29;4688;-88
2023/08/27 00:03:13;;;;;;;1.75;1.40;;;;;;;19.61;82.73;98939.25;332059;29;4611;-88
2023/08/27 00:03:26;;;;;;;2.03;1.40;;;;;;;19.61;82.38;98934.00;330650;29;16665;-88
2023/08/27 00:03:38;;;;;;;3.03;1.50;;;;;;;19.61;82.66;98931.34;332199;29;4489;-89
2023/08/27 00:03:50;;;;;;;3.70;1.40;;;;;;;19.60;82.40;98935.78;329086;29;18041;-88
2023/08/27 00:04:02;;;;;;;3.08;1.45;;;;;;;19.61;82.56;98931.34;332248;29;4573;-88
2023/08/27 00:04:14;;;;;;;3.17;1.48;;;;;;;19.59;82.67;98931.47;330452;28;17545;-89
2023/08/27 00:04:26;;;;;;;2.35;1.40;;;;;;;19.59;82.97;98939.38;332738;28;4513;-88
2023/08/27 00:04:40;;;;;;;2.95;1.40;;;;;;;19.58;82.89;98926.31;328038;28;4704;-88
2023/08/27 00:04:52;;;;;;;4.05;1.45;;;;;;;19.56;83.00;98932.56;334740;28;4518;-88
2023/08/27 00:05:06;;;;;;;3.28;1.40;;;;;;;19.57;82.87;98928.13;331617;28;18183;-90
2023/08/27 00:05:18;;;;;;;2.10;1.20;;;;;;;19.56;83.36;98929.09;333430;29;4491;-89
2023/08/27 00:05:30;;;;;;;1.90;1.27;;;;;;;19.55;83.45;98928.25;332192;29;17809;-88
2023/08/27 00:05:43;;;;;;;3.47;1.40;;;;;;;19.55;83.47;98933.50;335832;28;4502;-88
2023/08/27 00:05:56;;;;;;;4.43;1.50;;;;;;;19.55;83.22;98928.25;333379;28;17883;-88
2023/08/27 00:06:09;;;;;;;3.05;1.35;;;;;;;19.56;83.12;98924.66;335891;28;5187;-89
2023/08/27 00:06:21;;;;;;;2.65;1.30;;;;;;;19.57;82.95;98925.47;333303;29;16344;-88
2023/08/27 00:06:33;;;;;;;2.75;1.30;;;;;;;19.56;83.09;98919.38;336063;29;4478;-88
2023/08/27 00:06:45;;;;;;;3.03;1.40;;;;;;;19.55;83.16;98925.59;330402;29;18213;-88
2023/08/27 00:06:57;;;;;;;2.08;1.40;;;;;;;19.55;83.32;98928.25;333813;29;4540;-88
2023/08/27 00:07:09;;;;;;;3.08;1.38;;;;;;;19.54;83.06;98926.59;331190;29;10138;-89
2023/08/27 00:07:23;;;;;;;3.67;1.40;;;;;;;19.55;83.00;98917.69;334046;29;4545;-88
2023/08/27 00:07:35;;;;;;;3.70;1.40;;;;;;;19.55;82.97;98922.97;328146;29;7580;-89
2023/08/27 00:07:47;;;;;;;2.30;1.40;;;;;;;19.56;82.78;98919.38;336341;29;4442;-89
2023/08/27 00:07:59;;;;;;;2.60;1.38;;;;;;;19.58;82.77;98921.03;335700;29;4581;-89
2023/08/27 00:08:11;;;;;;;2.00;1.35;;;;;;;19.59;82.69;98918.28;326860;29;17317;-88
2023/08/27 00:08:23;;;;;;;1.73;1.20;;;;;;;19.56;82.61;98924.66;334938;29;4506;-88
2023/08/27 00:08:35;;;;;;;1.65;1.27;;;;;;;19.59;82.58;98922.72;331325;29;18066;-88
2023/08/27 00:08:47;;;;;;;2.17;1.40;;;;;;;19.60;82.30;98924.38;334688;29;4482;-87
2023/08/27 00:08:59;;;;;;;2.38;1.45;;;;;;;19.58;82.54;98915.78;334413;29;4484;-87
2023/08/27 00:09:11;;;;;;;1.83;1.27;;;;;;;19.59;82.30;98917.47;326295;28;9424;-88
2023/08/27 00:09:23;;;;;;;3.30;1.30;;;;;;;19.59;82.53;98926.19;334511;28;4521;-87
2023/08/27 00:09:35;;;;;;;4.60;1.50;;;;;;;19.61;82.52;98915.53;332366;29;4526;-88
2023/08/27 00:09:48;;;;;;;4.03;1.48;;;;;;;19.59;82.73;98917.47;333369;29;4643;-86
2023/08/27 00:10:00;;;;;;;3.88;1.35;;;;;;;19.60;82.52;98924.38;331985;29;4559;-87
2023/08/27 00:10:12;;;;;;;2.58;1.30;;;;;;;19.60;82.65;98919.13;329478;29;17990;-87
2023/08/27 00:10:24;;;;;;;1.65;1.33;;;;;;;19.58;82.35;98915.78;331489;29;4732;-87
2023/08/27 00:10:36;;;;;;;1.85;1.40;;;;;;;19.60;82.47;98919.13;328612;29;8976;-87
2023/08/27 00:10:48;;;;;;;1.95;1.48;;;;;;;19.61;82.54;98920.81;333415;29;4738;-86
2023/08/27 00:11:03;;;;;;;2.20;1.60;;;;;;;19.61;82.22;98915.53;331777;29;4622;-87
2023/08/27 00:11:15;;;;;;;1.73;1.45;;;;;;;19.61;82.36;98921.63;335853;28;8794;-87
2023/08/27 00:11:27;;;;;;;2.13;1.35;;;;;;;19.61;82.26;98918.16;332893;28;19230;-87
2023/08/27 00:11:39;;;;;;;3.00;1.48;;;;;;;19.64;82.27;98920.53;336244;28;4578;-87
2023/08/27 00:11:51;;;;;;;3.90;1.50;;;;;;;19.64;81.89;98915.25;333579;29;4564;-88
2023/08/27 00:12:04;;;;;;;4.60;1.58;;;;;;;19.63;82.27;98913.59;329263;29;18041;-87
2023/08/27 00:12:16;;;;;;;3.65;1.50;;;;;;;19.61;82.10;98911.09;334400;29;4585;-88
2023/08/27 00:12:28;;;;;;;2.38;1.42;;;;;;;19.59;82.68;98912.19;329645;29;16759;-87
2023/08/27 00:12:40;;;;;;;2.40;1.48;;;;;;;19.55;83.32;98912.41;334693;29;4660;-87
2023/08/27 00:12:52;;;;;;;2.50;1.40;;;;;;;19.54;83.47;98915.22;334613;28;8815;-87
2023/08/27 00:13:04;;;;;;;2.17;1.40;;;;;;;19.53;83.69;98908.25;337301;28;4506;-88
2023/08/27 00:13:16;;;;;;;2.97;1.60;;;;;;;19.52;83.57;98912.69;335889;29;4558;-87
2023/08/27 00:13:28;;;;;;;3.60;1.75;;;;;;;19.52;83.50;98911.84;332607;28;16682;-87
2023/08/27 00:13:40;;;;;;;2.63;1.40;;;;;;;19.52;83.50;98904.78;336048;28;4923;-88
2023/08/27 00:13:52;;;;;;;2.28;1.35;;;;;;;19.54;83.33;98910.75;330632;29;17647;-88
2023/08/27 00:14:05;;;;;;;2.00;1.27;;;;;;;19.54;83.13;98916.03;332929;29;4555;-88
2023/08/27 00:14:17;;;;;;;2.28;1.17;;;;;;;19.55;83.36;98908.97;330635;29;16352;-88
2023/08/27 00:14:30;;;;;;;2.42;1.27;;;;;;;19.56;83.23;98908.84;332458;29;4548;-87
2023/08/27 00:14:42;;;;;;;1.88;1.30;;;;;;;19.58;82.93;98905.22;333499;29;19115;-87
2023/08/27 00:14:54;;;;;;;1.50;1.30;;;;;;;19.56;83.27;98906.19;330389;29;16683;-88
2023/08/27 00:15:07;;;;;;;1.45;1.30;;;;;;;19.56;83.04;98906.19;328438;29;4480;-87
2023/08/27 00:15:19;;;;;;;1.80;1.30;;;;;;;19.59;82.94;98909.56;333162;28;16874;-88
2023/08/27 00:15:31;;;;;;;2.53;1.52;;;;;;;19.59;82.93;98910.38;336197;28;4653;-87
2023/08/27 00:15:46;;;;;;;2.33;1.50;;;;;;;19.59;82.90;98905.09;332914;28;19486;-88
2023/08/27 00:15:58;;;;;;;2.10;1.70;;;;;;;19.59;83.25;98912.19;330738;29;4681;-88
2023/08/27 00:16:11;;;;;;;1.92;1.65;;;;;;;19.58;83.47;98902.59;333157;29;4505;-88
2023/08/27 00:16:23;;;;;;;1.50;1.40;;;;;;;19.55;83.46;98907.16;326126;29;4680;-87
2023/08/27 00:16:36;;;;;;;1.45;1.35;;;;;;;19.54;83.36;98905.50;334851;28;4546;-87
2023/08/27 00:16:48;;;;;;;1.50;1.38;;;;;;;19.55;83.13;98901.88;330714;29;15632;-88
2023/08/27 00:17:03;;;;;;;1.92;1.38;;;;;;;19.55;82.97;98904.50;334855;29;4540;-87
2023/08/27 00:17:15;;;;;;;1.88;1.30;;;;;;;19.55;83.82;98906.31;330551;29;18060;-88
2023/08/27 00:17:27;;;;;;;2.28;1.33;;;;;;;19.53;83.78;98909.06;333721;29;4484;-88
2023/08/27 00:17:39;;;;;;;2.40;1.30;;;;;;;19.52;83.72;98912.69;329541;29;15481;-87
2023/08/27 00:17:51;;;;;;;2.20;1.25;;;;;;;19.51;84.11;98911.00;333326;29;4504;-87
2023/08/27 00:18:04;;;;;;;2.47;1.40;;;;;;;19.52;83.65;98902.16;325513;29;4758;-88
2023/08/27 00:18:17;;;;;;;2.97;1.70;;;;;;;19.52;83.47;98904.78;333249;29;4740;-88
2023/08/27 00:18:29;;;;;;;2.20;1.58;;;;;;;19.50;83.68;98904.06;333034;28;16767;-87
2023/08/27 00:18:41;;;;;;;2.00;1.58;;;;;;;19.51;84.26;98905.72;335279;28;4522;-88
2023/08/27 00:18:53;;;;;;;1.77;1.42;;;;;;;19.52;84.13;98912.69;332158;29;8291;-88
2023/08/27 00:19:05;;;;;;;1.85;1.50;;;;;;;19.51;84.07;98911.00;333510;29;4493;-87
2023/08/27 00:19:17;;;;;;;2.00;1.40;;;;;;;19.54;84.00;98909.94;330340;29;4704;-88
2023/08/27 00:19:29;;;;;;;1.88;1.35;;;;;;;19.55;83.97;98908.97;331872;29;9444;-88
2023/08/27 00:19:41;;;;;;;1.90;1.40;;;;;;;19.54;83.81;98909.94;334576;29;4563;-88
2023/08/27 00:19:54;;;;;;;4.22;1.50;;;;;;;19.55;83.44;98907.16;334256;29;4479;-87
2023/08/27 00:20:09;;;;;;;4.30;1.40;;;;;;;19.56;83.36;98908.00;332332;29;17067;-88
2023/08/27 00:20:21;;;;;;;1.92;1.42;;;;;;;19.59;83.56;98901.63;331809;29;17837;-88
2023/08/27 00:20:33;;;;;;;2.10;1.60;;;;;;;19.58;82.81;98906.09;333052;29;4511;-88
2023/08/27 00:20:46;;;;;;;2.03;1.70;;;;;;;19.60;82.97;98908.56;330733;29;18005;-87
2023/08/27 00:20:58;;;;;;;1.80;1.50;;;;;;;19.62;82.72;98911.91;332663;29;4649;-88
2023/08/27 00:21:11;;;;;;;2.25;1.33;;;;;;;19.64;82.59;98912.63;330789;29;17755;-87
2023/08/27 00:21:23;;;;;;;2.90;1.40;;;;;;;19.66;82.57;98913.34;334835;28;4517;-87
2023/08/27 00:21:35;;;;;;;3.00;1.40;;;;;;;19.66;82.47;98913.34;332155;28;9633;-87
2023/08/27 00:21:48;;;;;;;1.58;1.30;;;;;;;19.66;82.18;98908.94;334584;28;4638;-88
2023/08/27 00:22:00;;;;;;;1.80;1.25;;;;;;;19.67;82.59;98915.03;332171;28;17808;-88
2023/08/27 00:22:12;;;;;;;1.90;1.30;;;;;;;19.68;82.27;98911.41;333239;29;4466;-88
2023/08/27 00:22:24;;;;;;;3.22;1.40;;;;;;;19.69;82.43;98908.66;333036;29;4690;-89
2023/08/27 00:22:37;;;;;;;3.15;1.30;;;;;;;19.69;82.17;98913.09;329800;29;4753;-88
2023/08/27 00:22:49;;;;;;;2.28;1.23;;;;;;;19.68;82.24;98908.78;333321;29;4524;-87
2023/08/27 00:23:01;;;;;;;2.42;1.35;;;;;;;19.67;82.11;98910.59;331973;29;17765;-88
2023/08/27 00:23:13;;;;;;;2.50;1.50;;;;;;;19.67;82.01;98907.13;334510;29;4537;-88
2023/08/27 00:23:25;;;;;;;2.72;1.42;;;;;;;19.68;81.89;98909.63;335161;28;4545;-89
2023/08/27 00:23:40;;;;;;;2.10;1.33;;;;;;;19.68;81.99;98909.63;331823;29;17958;-87
2023/08/27 00:23:52;;;;;;;1.60;1.30;;;;;;;19.69;82.14;98910.47;327704;28;17590;-87
2023/08/27 00:24:04;;;;;;;1.60;1.30;;;;;;;19.68;82.15;98906.13;332817;28;4589;-86
2023/08/27 00:24:16;;;;;;;1.55;1.23;;;;;;;19.68;82.27;98912.28;331966;28;7963;-88
2023/08/27 00:24:28;;;;;;;1.30;1.20;;;;;;;19.68;82.27;98906.13;335380;28;4492;-88
2023/08/27 00:24:40;;;;;;;1.67;1.30;;;;;;;19.67;82.30;98912.41;331947;28;4610;-88
2023/08/27 00:24:52;;;;;;;2.95;1.40;;;;;;;19.68;82.27;98906.13;333056;29;4780;-87
2023/08/27 00:25:05;;;;;;;2.90;1.35;;;;;;;19.68;82.69;98906.13;333467;29;4482;-88
2023/08/27 00:25:17;;;;;;;1.85;1.20;;;;;;;19.68;82.52;98911.41;329655;29;4611;-87
2023/08/27 00:25:29;;;;;;;2.00;1.48;;;;;;;19.68;82.68;98911.41;325944;29;4487;-88
2023/08/27 00:25:44;;;;;;;2.10;1.50;;;;;;;19.69;82.47;98905.19;329510;29;4584;-88
2023/08/27 00:25:56;;;;;;;1.55;1.30;;;;;;;19.68;82.63;98907.00;333324;29;4646;-88
2023/08/27 00:26:08;;;;;;;1.63;1.25;;;;;;;19.68;82.52;98911.41;331339;29;16603;-88
2023/08/27 00:26:20;;;;;;;1.60;1.30;;;;;;;19.68;82.49;98904.38;336108;28;4506;-88
2023/08/27 00:26:32;;;;;;;2.33;1.50;;;;;;;19.70;82.14;98909.53;332904;28;17386;-87
2023/08/27 00:26:45;;;;;;;2.20;1.42;;;;;;;19.68;82.24;98901.72;331399;28;4579;-88
2023/08/27 00:26:56;;;;;;;1.92;1.33;;;;;;;19.68;82.66;98895.59;332816;28;9949;-88
2023/08/27 00:27:08;;;;;;;2.30;1.35;;;;;;;19.69;82.61;98897.28;336751;28;4517;-88
2023/08/27 00:27:21;;;;;;;1.85;1.25;;;;;;;19.68;82.54;98899.09;333186;29;4522;-88
2023/08/27 00:27:35;;;;;;;1.92;1.60;;;;;;;19.68;82.81;98901.72;332921;28;17822;-88
2023/08/27 00:27:47;;;;;;;2.25;1.70;;;;;;;19.67;83.46;98904.47;331870;29;17688;-87
2023/08/27 00:27:59;;;;;;;2.03;1.75;;;;;;;19.66;83.10;98902.78;336090;28;4612;-88
2023/08/27 00:28:15;;;;;;;1.67;1.52;;;;;;;19.64;82.98;98900.31;334841;28;4629;-88
2023/08/27 00:28:28;;;;;;;3.20;1.50;;;;;;;19.63;83.27;98898.63;330196;29;17008;-88
2023/08/27 00:28:40;;;;;;;3.38;1.65;;;;;;;19.63;83.27;98900.44;329232;29;17348;-88
2023/08/27 00:28:52;;;;;;;2.05;1.60;;;;;;;19.61;83.17;98902.34;333368;28;4575;-88
2023/08/27 00:29:04;;;;;;;1.73;1.55;;;;;;;19.61;83.14;98905.00;330726;28;17989;-87
2023/08/27 00:29:19;;;;;;;1.85;1.65;;;;;;;19.60;83.35;98892.75;332386;29;4483;-88
2023/08/27 00:29:32;;;;;;;3.33;2.00;;;;;;;19.61;82.91;98892.63;328876;29;17392;-87
2023/08/27 00:29:46;;;;;;;2.83;1.60;;;;;;;19.59;83.01;98896.38;330685;28;17870;-87
2023/08/27 00:29:58;;;;;;;1.45;1.20;;;;;;;19.58;82.95;98898.19;328625;28;4548;-87
2023/08/27 00:30:10;;;;;;;1.38;1.25;;;;;;;19.58;83.20;98895.53;329605;29;17089;-87
2023/08/27 00:30:22;;;;;;;1.52;1.30;;;;;;;19.54;83.13;98894.94;331137;29;4819;-88
2023/08/27 00:30:34;;;;;;;1.85;1.33;;;;;;;19.54;83.31;98894.94;330631;29;4757;-88
2023/08/27 00:30:46;;;;;;;2.67;1.50;;;;;;;19.54;83.17;98900.22;333348;29;4878;-87
2023/08/27 00:31:03;;;;;;;5.00;1.50;;;;;;;19.56;82.93;98903.56;329754;29;4823;-88
2023/08/27 00:31:15;;;;;;;4.80;1.52;;;;;;;19.58;82.93;98899.94;329005;29;17277;-87
2023/08/27 00:31:27;;;;;;;2.97;1.85;;;;;;;19.56;83.06;98900.94;330726;29;4698;-87
2023/08/27 00:31:40;;;;;;;3.53;1.80;;;;;;;19.55;83.06;98896.59;327330;29;17869;-88
2023/08/27 00:31:52;;;;;;;3.40;1.75;;;;;;;19.57;82.81;98904.41;333190;29;4518;-88
2023/08/27 00:32:05;;;;;;;2.78;1.58;;;;;;;19.58;82.95;98902.59;328243;29;17372;-88
2023/08/27 00:32:36;;;;;;;3.17;1.90;;;;;;;19.55;83.06;98904.50;329131;29;18206;-87
2023/08/27 00:32:48;;;;;;;3.17;2.10;;;;;;;19.54;83.26;98905.50;333392;29;4458;-87
2023/08/27 00:33:00;;;;;;;3.85;1.90;;;;;;;19.53;83.41;98909.06;330819;28;17101;-88
2023/08/27 00:33:12;;;;;;;3.90;1.63;;;;;;;19.52;83.52;98912.69;335677;28;4966;-88
2023/08/27 00:33:24;;;;;;;3.60;1.63;;;;;;;19.52;83.85;98906.59;332943;28;4539;-88
2023/08/27 00:33:36;;;;;;;4.25;1.90;;;;;;;19.51;83.59;98916.28;337274;28;4896;-87
2023/08/27 00:33:49;;;;;;;5.68;2.00;;;;;;;19.53;83.67;98914.34;337152;28;4527;-87
2023/08/27 00:34:01;;;;;;;4.45;1.92;;;;;;;19.54;83.70;98918.66;333938;28;17510;-88
2023/08/27 00:34:13;;;;;;;4.50;1.75;;;;;;;19.56;83.40;98911.47;336883;28;4517;-88
2023/08/27 00:34:32;;;;;;;3.58;1.70;;;;;;;19.55;83.32;98919.50;331958;29;19918;-87
2023/08/27 00:34:44;;;;;;;3.08;1.58;;;;;;;19.55;83.25;98912.41;334911;29;17040;-87
2023/08/27 00:34:56;;;;;;;3.17;1.50;;;;;;;19.54;83.23;98916.03;331683;29;17789;-87
2023/08/27 00:35:08;;;;;;;2.13;1.40;;;;;;;19.55;83.31;98922.97;334093;29;5089;-88
2023/08/27 00:35:20;;;;;;;2.13;1.60;;;;;;;19.55;83.16;98922.97;330988;29;4511;-88
2023/08/27 00:35:33;;;;;;;2.20;1.60;;;;;;;19.56;82.90;98924.66;333479;29;4729;-87
2023/08/27 00:35:48;;;;;;;2.33;1.58;;;;;;;19.58;82.99;98921.03;332771;29;4663;-88
2023/08/27 00:36:00;;;;;;;2.70;1.48;;;;;;;19.60;82.64;98927.03;330714;29;17632;-88
2023/08/27 00:36:12;;;;;;;3.40;1.45;;;;;;;19.61;82.54;98920.81;335654;29;4695;-88
2023/08/27 00:36:24;;;;;;;3.28;1.50;;;;;;;19.63;82.83;98924.16;336893;28;4846;-87
2023/08/27 00:36:36;;;;;;;2.80;1.50;;;;;;;19.63;82.65;98921.53;334784;28;17200;-88
2023/08/27 00:36:48;;;;;;;1.88;1.60;;;;;;;19.63;82.77;98924.16;337194;28;4493;-88
2023/08/27 00:37:01;;;;;;;2.20;1.70;;;;;;;19.62;82.38;98922.47;331967;28;4517;-88
2023/08/27 00:37:13;;;;;;;2.80;1.70;;;;;;;19.63;82.62;98924.16;329744;28;4876;-87
2023/08/27 00:37:25;;;;;;;4.07;1.65;;;;;;;19.64;82.28;98923.19;332875;28;4526;-89
2023/08/27 00:37:37;;;;;;;5.50;1.65;;;;;;;19.62;82.47;98927.72;334825;28;17244;-87
2023/08/27 00:37:50;;;;;;;4.50;1.80;;;;;;;19.63;82.14;98924.97;334937;28;4476;-88
2023/08/27 00:38:04;;;;;;;3.75;1.73;;;;;;;19.61;82.63;98928.72;330442;28;9608;-88
2023/08/27 00:38:16;;;;;;;3.35;1.75;;;;;;;19.61;82.58;98936.63;329183;29;16916;-88
2023/08/27 00:38:28;;;;;;;2.90;1.52;;;;;;;19.62;82.54;98933.00;334694;29;4880;-87
2023/08/27 00:38:40;;;;;;;2.45;1.40;;;;;;;19.63;82.48;98934.69;335916;28;5682;-87
2023/08/27 00:38:52;;;;;;;2.60;1.52;;;;;;;19.64;82.69;98931.94;331764;28;4510;-88
2023/08/27 00:39:05;;;;;;;1.63;1.50;;;;;;;19.65;82.56;98938.03;333985;28;4504;-87
2023/08/27 00:39:17;;;;;;;2.85;1.50;;;;;;;19.64;82.56;98934.59;332645;28;17413;-88
2023/08/27 00:39:29;;;;;;;3.35;1.40;;;;;;;19.64;82.63;98936.34;334580;28;4685;-87
2023/08/27 00:39:41;;;;;;;2.22;1.30;;;;;;;19.65;82.50;98943.31;333421;28;9915;-88
2023/08/27 00:39:53;;;;;;;1.80;1.40;;;;;;;19.65;83.02;98938.03;335599;29;4846;-87
2023/08/27 00:40:06;;;;;;;2.30;1.55;;;;;;;19.62;83.45;98939.16;329795;29;4580;-88
2023/08/27 00:40:18;;;;;;;3.42;1.60;;;;;;;19.63;83.53;98945.25;330689;29;16706;-87
2023/08/27 00:40:31;;;;;;;3.20;1.45;;;;;;;19.63;83.34;98939.97;334901;29;4491;-88
2023/08/27 00:40:42;;;;;;;2.17;1.35;;;;;;;19.62;83.23;98944.41;330662;29;16463;-87
2023/08/27 00:40:55;;;;;;;1.85;1.40;;;;;;;19.62;83.44;98941.78;332388;29;4544;-87
2023/08/27 00:41:07;;;;;;;1.90;1.40;;;;;;;19.62;83.06;98930.38;329337;29;9109;-88
2023/08/27 00:41:18;;;;;;;1.85;1.35;;;;;;;19.62;83.46;98938.28;334301;28;4599;-88
2023/08/27 00:41:31;;;;;;;2.03;1.50;;;;;;;19.59;83.79;98938.53;334625;28;4555;-87
2023/08/27 00:41:43;;;;;;;2.28;1.73;;;;;;;19.55;83.82;98941.41;325185;29;5115;-88
2023/08/27 00:41:56;;;;;;;3.00;1.77;;;;;;;19.55;83.81;98938.78;332014;29;4541;-88
2023/08/27 00:42:08;;;;;;;2.70;1.70;;;;;;;19.54;83.92;98937.13;328072;29;17868;-87
2023/08/27 00:42:20;;;;;;;2.28;1.60;;;;;;;19.55;83.69;98943.22;329872;29;4499;-88
2023/08/27 00:42:32;;;;;;;2.10;1.42;;;;;;;19.54;83.72;98936.28;330291;29;4911;-88
2023/08/27 00:42:44;;;;;;;3.00;1.40;;;;;;;19.55;84.13;98938.78;327934;29;18162;-87
2023/08/27 00:42:56;;;;;;;3.30;1.40;;;;;;;19.54;84.00;98937.13;330756;29;4504;-87
2023/08/27 00:43:09;;;;;;;3.42;1.42;;;;;;;19.55;84.11;98944.06;327806;29;16810;-88
2023/08/27 00:43:21;;;;;;;3.38;1.40;;;;;;;19.55;84.05;98944.06;330429;29;4653;-88
2023/08/27 00:43:33;;;;;;;3.25;1.38;;;;;;;19.56;84.01;98939.66;329787;29;18125;-87
2023/08/27 00:43:45;;;;;;;2.72;1.50;;;;;;;19.55;83.97;98938.78;333055;29;4519;-88
2023/08/27 00:43:57;;;;;;;2.92;1.60;;;;;;;19.58;84.17;98947.41;334722;29;4516;-87
2023/08/27 00:44:09;;;;;;;3.28;1.70;;;;;;;19.56;83.99;98939.66;331829;29;16493;-88
2023/08/27 00:44:21;;;;;;;2.60;1.50;;;;;;;19.58;84.07;98942.13;334038;29;4915;-88
2023/08/27 00:44:33;;;;;;;2.45;1.45;;;;;;;19.58;83.88;98934.22;333114;28;5322;-87
2023/08/27 00:44:45;;;;;;;2.10;1.50;;;;;;;19.56;84.10;98940.47;332034;29;18149;-88
2023/08/27 00:44:58;;;;;;;3.03;1.70;;;;;;;19.58;83.87;98939.50;333425;29;4469;-88
2023/08/27 00:45:10;;;;;;;3.15;1.88;;;;;;;19.58;84.03;98936.84;330645;29;16436;-87
2023/08/27 00:45:22;;;;;;;3.30;1.92;;;;;;;19.59;83.86;98935.91;333258;29;4531;-88
2023/08/27 00:45:34;;;;;;;2.03;1.60;;;;;;;19.58;83.69;98936.84;330257;29;16875;-87
2023/08/27 00:45:46;;;;;;;1.85;1.45;;;;;;;19.55;83.83;98938.78;332953;29;4532;-88
2023/08/27 00:45:59;;;;;;;2.15;1.55;;;;;;;19.53;84.45;98932.78;325214;29;4530;-88
2023/08/27 00:46:11;;;;;;;2.65;1.60;;;;;;;19.49;84.81;98934.00;332657;29;4527;-87
2023/08/27 00:46:24;;;;;;;3.60;1.67;;;;;;;19.47;85.34;98941.19;329870;29;6881;-88
2023/08/27 00:46:36;;;;;;;3.35;1.70;;;;;;;19.44;85.82;98936.19;333241;29;4867;-88
2023/08/27 00:46:49;;;;;;;3.33;1.90;;;;;;;19.45;85.54;98939.66;333333;29;8953;-87
2023/08/27 00:47:02;;;;;;;2.75;1.90;;;;;;;19.46;85.22;98936.91;330684;29;19031;-88
2023/08/27 00:47:15;;;;;;;2.35;1.67;;;;;;;19.46;85.21;98944.81;333486;28;11163;-87
2023/08/27 00:47:27;;;;;;;3.63;1.70;;;;;;;19.47;84.91;98943.84;328960;29;16482;-88
2023/08/27 00:47:39;;;;;;;3.13;1.50;;;;;;;19.50;84.56;98946.25;325513;29;4691;-88
2023/08/27 00:47:51;;;;;;;1.75;1.42;;;;;;;19.48;84.59;98942.06;330197;29;17519;-88
2023/08/27 00:48:04;;;;;;;4.00;1.50;;;;;;;19.49;84.63;98949.81;331417;29;4917;-88
2023/08/27 00:48:17;;;;;;;4.38;1.55;;;;;;;19.49;84.64;98949.81;329607;29;17804;-87
2023/08/27 00:48:29;;;;;;;3.53;1.50;;;;;;;19.48;84.50;98950.81;332051;29;4692;-88
2023/08/27 00:48:41;;;;;;;2.00;1.52;;;;;;;19.47;84.14;98949.13;330431;29;16533;-87
2023/08/27 00:48:53;;;;;;;2.10;1.60;;;;;;;19.48;84.26;98952.59;334146;29;4470;-87
2023/08/27 00:49:05;;;;;;;2.10;1.63;;;;;;;19.47;84.49;98943.00;331987;29;17772;-88
2023/08/27 00:49:17;;;;;;;2.15;1.63;;;;;;;19.48;84.17;98945.53;334486;29;4469;-87
2023/08/27 00:49:30;;;;;;;2.63;1.77;;;;;;;19.47;84.50;98950.91;330385;29;4512;-87
2023/08/27 00:49:42;;;;;;;2.97;1.83;;;;;;;19.46;84.97;98952.72;332697;29;4502;-88
2023/08/27 00:49:54;;;;;;;4.38;1.77;;;;;;;19.45;84.83;98952.84;328910;29;9162;-88
2023/08/27 00:50:10;;;;;;;3.95;1.67;;;;;;;19.44;84.82;98957.28;332169;29;4493;-88
2023/08/27 00:50:22;;;;;;;3.72;1.85;;;;;;;19.41;85.18;98949.59;329704;29;16628;-88
2023/08/27 00:50:34;;;;;;;3.97;2.05;;;;;;;19.39;85.57;98954.16;332520;29;4518;-88
2023/08/27 00:50:46;;;;;;;4.78;2.47;;;;;;;19.40;85.09;98955.84;330792;29;17132;-87
2023/08/27 00:50:59;;;;;;;4.10;2.50;;;;;;;19.38;85.08;98955.13;330803;29;4511;-87
2023/08/27 00:51:12;;;;;;;2.95;1.88;;;;;;;19.38;85.20;98957.78;329393;29;17090;-88
2023/08/27 00:51:24;;;;;;;3.05;1.70;;;;;;;19.39;85.01;98955.97;334576;29;4489;-87
2023/08/27 00:51:37;;;;;;;4.20;1.60;;;;;;;19.36;85.13;98959.69;330260;29;8084;-88
2023/08/27 00:51:49;;;;;;;3.45;1.63;;;;;;;19.39;85.21;98959.44;326654;29;4557;-87
2023/08/27 00:52:02;;;;;;;3.78;1.70;;;;;;;19.40;85.53;98961.13;330319;29;5549;-88
2023/08/27 00:52:17;;;;;;;3.78;1.70;;;;;;;19.42;85.22;98959.22;334119;28;4591;-87
2023/08/27 00:52:29;;;;;;;2.58;1.55;;;;;;;19.44;85.55;98957.28;331273;29;16037;-88
2023/08/27 00:52:42;;;;;;;2.80;1.60;;;;;;;19.47;85.38;98964.09;331373;29;17867;-87
2023/08/27 00:52:54;;;;;;;3.05;1.70;;;;;;;19.46;85.34;98960.63;333409;29;4530;-87
2023/08/27 00:53:06;;;;;;;3.53;1.90;;;;;;;19.46;85.86;98958.00;331639;28;17326;-88
2023/08/27 00:53:19;;;;;;;3.95;2.00;;;;;;;19.46;86.06;98960.63;335244;28;4556;-88
2023/08/27 00:53:32;;;;;;;3.25;2.42;;;;;;;19.45;85.91;98953.66;335562;28;4549;-88
2023/08/27 00:53:44;;;;;;;3.10;2.60;;;;;;;19.46;85.53;98959.81;332047;29;18831;-87
2023/08/27 00:53:56;;;;;;;4.53;2.40;;;;;;;19.46;85.48;98960.63;333177;29;4758;-87
2023/08/27 00:54:08;;;;;;;3.63;1.70;;;;;;;19.46;85.36;98954.53;330171;29;18005;-87
2023/08/27 00:54:20;;;;;;;4.32;1.90;;;;;;;19.48;85.44;98950.81;333298;29;4468;-87
2023/08/27 00:54:33;;;;;;;4.38;1.90;;;;;;;19.49;85.42;98957.72;329400;29;17920;-87
2023/08/27 00:54:46;;;;;;;5.72;1.80;;;;;;;19.47;85.38;98957.03;333322;29;4512;-88
2023/08/27 00:55:00;;;;;;;3.40;1.60;;;;;;;19.50;85.55;98962.06;329634;29;8989;-87
2023/08/27 00:55:12;;;;;;;2.05;1.65;;;;;;;19.51;85.66;98958.44;330211;29;6583;-88
2023/08/27 00:55:24;;;;;;;4.05;1.63;;;;;;;19.53;85.49;98963.59;334385;29;4503;-87
2023/08/27 00:55:37;;;;;;;4.28;1.58;;;;;;;19.55;85.44;98967.78;334380;29;4562;-87
2023/08/27 00:55:51;;;;;;;3.67;1.52;;;;;;;19.56;85.67;98961.56;331849;29;16248;-87
2023/08/27 00:56:03;;;;;;;2.28;1.60;;;;;;;19.55;85.23;98962.50;330384;28;18711;-88
2023/08/27 00:56:15;;;;;;;3.08;1.73;;;;;;;19.53;84.88;98967.06;337249;28;4522;-88
2023/08/27 00:56:27;;;;;;;4.22;1.92;;;;;;;19.54;85.15;98960.84;334659;28;4496;-88
2023/08/27 00:56:43;;;;;;;4.55;1.83;;;;;;;19.52;84.71;98965.41;336577;28;4675;-87
2023/08/27 00:56:55;;;;;;;3.60;1.77;;;;;;;19.50;84.94;98967.31;330651;29;17774;-88
2023/08/27 00:57:08;;;;;;;2.58;1.70;;;;;;;19.48;84.68;98965.78;330856;29;4558;-88
2023/08/27 00:57:21;;;;;;;3.88;2.00;;;;;;;19.46;84.60;98965.91;334727;29;4476;-88
2023/08/27 00:57:34;;;;;;;3.83;1.80;;;;;;;19.43;84.86;98968.78;331426;29;16344;-88
2023/08/27 00:57:48;;;;;;;2.67;1.67;;;;;;;19.43;84.96;98965.31;328733;29;4611;-87
2023/08/27 00:58:00;;;;;;;2.72;1.40;;;;;;;19.41;84.70;98970.69;329407;29;17492;-87
2023/08/27 00:58:12;;;;;;;3.93;1.50;;;;;;;19.41;84.70;98957.50;333492;29;4689;-88
2023/08/27 00:58:24;;;;;;;3.88;1.55;;;;;;;19.41;85.10;98970.69;331920;29;18893;-88
2023/08/27 00:58:37;;;;;;;3.13;1.50;;;;;;;19.39;85.01;98964.72;334778;29;4616;-87
2023/08/27 00:58:49;;;;;;;2.38;1.63;;;;;;;19.40;84.98;98966.41;331825;29;17738;-88
2023/08/27 00:59:01;;;;;;;2.42;1.65;;;;;;;19.39;85.04;98972.63;334964;29;4489;-87
2023/08/27 00:59:14;;;;;;;2.08;1.70;;;;;;;19.41;85.08;98973.31;333943;28;5038;-88
2023/08/27 00:59:26;;;;;;;2.03;1.60;;;;;;;19.40;85.01;98963.75;331058;29;17893;-88
2023/08/27 00:59:38;;;;;;;2.10;1.52;;;;;;;19.41;85.24;98962.78;320279;29;4610;-88
2023/08/27 00:59:51;;;;;;;1.80;1.30;;;;;;;19.41;85.25;98967.22;329996;29;17314;-89